Time;durP1;ratioP1;P1;durP2;ratioP2;P2;SDS_P1;SDS_P2;PMS_P1;PMS_P2;Temp;Humidity;BMP_temperature;BMP_pressure;BME280_temperature;BME280_humidity;BME280_pressure;Samples;Min_cycle;Max_cycle;Signal;HPM_P1;HPM_P2
2022/01/13 00:02:16;;;;;;;21.10;16.50;;;-1.90;99.90;;;;;;4995110;28;20088;-72
2022/01/13 00:04:42;;;;;;;20.27;17.42;;;-1.80;99.90;;;;;;4994785;28;20030;-71
2022/01/13 00:07:10;;;;;;;21.90;18.23;;;-1.70;99.90;;;;;;4993862;28;20051;-72
2022/01/13 00:09:36;;;;;;;23.45;18.88;;;-1.70;99.90;;;;;;4994780;28;20057;-72
2022/01/13 00:12:03;;;;;;;20.88;17.08;;;-1.80;99.90;;;;;;4994167;28;20352;-72
2022/01/13 00:17:27;;;;;;;21.52;16.02;;;-1.90;99.90;;;;;;4993800;28;20038;-72
2022/01/13 00:20:09;;;;;;;22.13;16.88;;;-1.90;99.90;;;;;;4994230;28;20034;-72
2022/01/13 00:25:03;;;;;;;21.42;17.52;;;-2.00;99.90;;;;;;4994033;28;20042;-72
2022/01/13 00:27:30;;;;;;;22.90;18.50;;;-1.90;99.90;;;;;;4994245;28;20034;-72
2022/01/13 00:29:59;;;;;;;19.10;17.08;;;-2.00;99.90;;;;;;4993857;28;20035;-72
2022/01/13 00:32:29;;;;;;;19.30;17.30;;;-2.00;99.90;;;;;;4994355;28;20375;-72
2022/01/13 00:34:55;;;;;;;21.77;18.58;;;-2.00;99.90;;;;;;4993822;28;20046;-72
2022/01/13 00:37:21;;;;;;;23.65;19.45;;;-2.10;99.90;;;;;;4994271;28;20111;-71
2022/01/13 00:39:48;;;;;;;25.42;20.00;;;-2.00;99.90;;;;;;4994072;28;20045;-71
2022/01/13 00:42:14;;;;;;;21.63;18.00;;;-1.90;99.90;;;;;;4994745;28;20397;-71
2022/01/13 00:44:42;;;;;;;20.52;17.85;;;-2.10;99.90;;;;;;4993887;28;20038;-71
2022/01/13 00:47:10;;;;;;;22.48;18.20;;;-2.10;99.90;;;;;;4993788;28;20256;-71
2022/01/13 00:49:36;;;;;;;22.23;18.77;;;-2.10;99.90;;;;;;4994715;28;20034;-71
2022/01/13 00:52:04;;;;;;;28.30;20.27;;;-2.10;99.90;;;;;;4993137;28;20037;-72
2022/01/13 00:54:32;;;;;;;19.58;17.30;;;-2.20;99.90;;;;;;4993998;28;20041;-71
2022/01/13 00:56:58;;;;;;;21.77;18.55;;;-2.20;99.90;;;;;;4991475;28;20038;-71
2022/01/13 00:59:25;;;;;;;27.08;20.73;;;-2.30;99.90;;;;;;4993444;28;20042;-71
2022/01/13 01:01:53;;;;;;;20.08;18.13;;;-2.20;99.90;;;;;;4993247;28;20034;-72
2022/01/13 01:04:20;;;;;;;25.20;21.90;;;-2.30;99.90;;;;;;4993706;28;20046;-72
2022/01/13 01:06:47;;;;;;;20.70;18.45;;;-2.20;99.90;;;;;;4993828;28;20034;-72
2022/01/13 01:09:17;;;;;;;22.70;20.30;;;-2.30;99.90;;;;;;4992959;28;20037;-72
2022/01/13 01:11:46;;;;;;;22.88;19.10;;;-2.30;99.90;;;;;;4993616;28;20045;-71
2022/01/13 01:14:14;;;;;;;22.02;19.67;;;-2.40;99.90;;;;;;4993094;28;20101;-72
2022/01/13 01:16:41;;;;;;;22.75;20.45;;;-2.30;99.90;;;;;;4993611;28;20057;-72
2022/01/13 01:19:10;;;;;;;22.98;20.55;;;-2.40;99.90;;;;;;4991132;28;20396;-72
2022/01/13 01:24:32;;;;;;;27.13;21.70;;;-2.40;99.90;;;;;;4992650;28;20050;-71
2022/01/13 01:27:05;;;;;;;22.38;19.95;;;-2.50;99.90;;;;;;4992686;28;20042;-71
2022/01/13 01:29:40;;;;;;;29.42;22.08;;;-2.60;99.90;;;;;;4995548;28;20030;-71
2022/01/13 01:32:10;;;;;;;27.38;23.35;;;-2.50;99.90;;;;;;4995408;28;20045;-71
2022/01/13 01:34:54;;;;;;;28.95;21.02;;;-2.50;99.90;;;;;;4993948;28;20042;-72
2022/01/13 01:37:26;;;;;;;29.85;20.60;;;-2.50;99.90;;;;;;4992128;28;20049;-71
2022/01/13 01:39:53;;;;;;;27.83;21.63;;;-2.50;99.90;;;;;;4992929;28;20034;-74
2022/01/13 01:42:21;;;;;;;25.88;22.17;;;-2.50;99.90;;;;;;4993572;28;20049;-71
2022/01/13 01:44:51;;;;;;;25.48;21.65;;;-2.40;99.90;;;;;;4993405;28;20039;-71
2022/01/13 01:47:19;;;;;;;26.88;23.05;;;-2.50;99.90;;;;;;4993278;28;20041;-71
2022/01/13 01:49:49;;;;;;;30.88;22.27;;;-2.50;99.90;;;;;;4993306;28;20376;-71
2022/01/13 01:52:17;;;;;;;28.77;22.77;;;-2.50;99.90;;;;;;4990718;28;20480;-71
2022/01/13 01:54:44;;;;;;;27.98;22.10;;;-2.50;99.90;;;;;;4993051;28;20037;-72
2022/01/13 01:57:11;;;;;;;30.95;23.25;;;-2.60;99.90;;;;;;4992680;28;20043;-71
2022/01/13 01:59:40;;;;;;;31.40;22.65;;;-2.50;99.90;;;;;;4992877;28;20404;-72
2022/01/13 02:02:08;;;;;;;32.83;24.20;;;-2.40;99.90;;;;;;4992577;28;20031;-72
2022/01/13 02:04:35;;;;;;;25.73;21.40;;;-2.50;99.90;;;;;;4992609;28;20038;-72
2022/01/13 02:07:07;;;;;;;24.13;21.58;;;-2.60;99.90;;;;;;4992633;28;20341;-71
2022/01/13 02:09:36;;;;;;;29.48;22.98;;;-2.60;99.90;;;;;;4993814;28;20470;-70
2022/01/13 02:12:08;;;;;;;27.50;24.52;;;-2.60;99.90;;;;;;4996302;28;20030;-71
2022/01/13 02:14:47;;;;;;;29.50;23.73;;;-2.70;99.90;;;;;;4996633;28;20341;-71
2022/01/13 02:17:21;;;;;;;30.95;24.58;;;-2.70;99.90;;;;;;4996285;28;20034;-71
2022/01/13 02:19:50;;;;;;;28.95;24.00;;;-2.80;99.90;;;;;;4996978;28;20027;-71
2022/01/13 02:22:16;;;;;;;35.47;26.83;;;-2.60;99.90;;;;;;4996207;28;20042;-72
2022/01/13 02:24:42;;;;;;;36.47;28.05;;;-2.60;99.90;;;;;;4997148;28;20065;-72
2022/01/13 02:27:08;;;;;;;30.05;26.33;;;-2.60;99.90;;;;;;4995964;28;20046;-72
2022/01/13 02:29:35;;;;;;;28.63;25.63;;;-2.70;99.90;;;;;;4996627;28;20464;-72
2022/01/13 02:32:03;;;;;;;27.20;24.33;;;-2.80;99.90;;;;;;4996010;28;20026;-72
2022/01/13 02:34:29;;;;;;;28.45;24.95;;;-2.90;99.90;;;;;;4996906;28;20045;-72
2022/01/13 02:36:57;;;;;;;30.08;25.65;;;-2.80;99.90;;;;;;4995991;28;20039;-75
2022/01/13 02:39:29;;;;;;;26.63;23.90;;;-2.80;99.90;;;;;;4996606;28;20125;-72
2022/01/13 02:41:56;;;;;;;30.75;27.13;;;-2.90;99.90;;;;;;4996437;28;20037;-72
2022/01/13 02:44:24;;;;;;;32.22;25.13;;;-2.90;99.90;;;;;;4996501;28;20034;-72
2022/01/13 02:49:20;;;;;;;28.55;25.45;;;-2.80;99.90;;;;;;4995814;28;20038;-72
2022/01/13 02:51:52;;;;;;;38.25;28.45;;;-2.90;99.90;;;;;;4996448;28;20467;-72
2022/01/13 02:54:19;;;;;;;41.42;28.63;;;-2.90;99.90;;;;;;4995767;28;20041;-72
2022/01/13 02:56:46;;;;;;;32.42;26.75;;;-2.90;99.90;;;;;;4996076;28;20034;-72
2022/01/13 02:59:13;;;;;;;34.90;27.85;;;-2.90;99.90;;;;;;4995790;28;20041;-71
2022/01/13 03:01:40;;;;;;;35.80;29.20;;;-2.80;99.90;;;;;;4996398;28;20392;-71
2022/01/13 03:04:08;;;;;;;36.83;28.20;;;-2.80;99.90;;;;;;4995869;28;20053;-71
2022/01/13 03:06:38;;;;;;;42.28;30.17;;;-2.90;99.90;;;;;;4995826;28;20531;-71
2022/01/13 03:09:13;;;;;;;38.25;29.60;;;-2.80;99.90;;;;;;4995757;28;20034;-72
2022/01/13 03:11:40;;;;;;;36.53;27.98;;;-2.90;99.90;;;;;;4996237;28;20519;-72
2022/01/13 03:14:11;;;;;;;36.53;26.38;;;-2.90;99.90;;;;;;4995447;28;20061;-72
2022/01/13 03:16:42;;;;;;;31.52;28.13;;;-2.80;99.90;;;;;;4996076;28;20041;-72
2022/01/13 03:19:09;;;;;;;38.15;27.85;;;-2.80;99.90;;;;;;4994297;28;20049;-72
2022/01/13 03:21:35;;;;;;;38.00;29.17;;;-2.80;99.90;;;;;;4995405;28;20031;-72
2022/01/13 03:24:06;;;;;;;35.70;28.33;;;-2.70;99.90;;;;;;4995564;28;20050;-71
2022/01/13 03:26:32;;;;;;;26.02;20.45;;;-2.70;99.90;;;;;;4995563;28;20062;-71
2022/01/13 03:29:32;;;;;;;37.10;28.83;;;-2.70;99.90;;;;;;4995114;28;20056;-75
2022/01/13 03:31:51;;;;;;;40.30;28.38;;;-2.70;99.90;;;;;;4994561;28;20061;-72
2022/01/13 03:34:17;;;;;;;37.80;30.75;;;-2.60;99.90;;;;;;4994668;28;20483;-71
2022/01/13 03:36:44;;;;;;;35.63;29.48;;;-2.70;99.90;;;;;;4995688;28;20038;-71
2022/01/13 03:39:13;;;;;;;42.33;29.52;;;-2.60;99.90;;;;;;4995079;28;20392;-71
2022/01/13 03:41:40;;;;;;;35.78;28.58;;;-2.70;99.90;;;;;;4995625;28;20030;-71
2022/01/13 03:44:15;;;;;;;34.38;28.30;;;-2.60;99.90;;;;;;4995208;28;20035;-72
2022/01/13 03:46:42;;;;;;;35.55;27.13;;;-2.60;99.90;;;;;;4995823;28;20042;-73
2022/01/13 03:49:09;;;;;;;40.15;26.77;;;-2.60;99.90;;;;;;4993418;28;20046;-72
2022/01/13 03:51:57;;;;;;;32.65;26.52;;;-2.70;99.90;;;;;;4995592;28;20053;-71
2022/01/13 03:54:33;;;;;;;33.70;28.15;;;-2.70;99.90;;;;;;4956131;28;20038;-72
2022/01/13 03:57:36;;;;;;;33.15;25.60;;;-2.70;99.90;;;;;;4995237;28;20061;-72
2022/01/13 04:00:21;;;;;;;28.55;25.20;;;-2.60;99.90;;;;;;4994304;28;20051;-72
2022/01/13 04:02:47;;;;;;;29.10;26.02;;;-2.60;99.90;;;;;;4995198;28;20034;-72
2022/01/13 04:05:13;;;;;;;37.88;29.58;;;-2.60;99.90;;;;;;4994187;28;20047;-72
2022/01/13 04:07:40;;;;;;;40.42;29.08;;;-2.60;99.90;;;;;;4994864;28;20054;-72
2022/01/13 04:10:06;;;;;;;38.50;29.38;;;-2.60;99.90;;;;;;4994278;28;20034;-72
2022/01/13 04:12:32;;;;;;;43.03;31.40;;;-2.60;99.90;;;;;;4994602;28;20026;-72
2022/01/13 04:15:01;;;;;;;49.60;31.95;;;-2.60;99.90;;;;;;4994966;28;20027;-72
2022/01/13 04:17:28;;;;;;;44.67;33.95;;;-2.50;99.90;;;;;;4994503;28;20034;-72
2022/01/13 04:19:54;;;;;;;55.65;35.00;;;-2.40;99.90;;;;;;4994686;28;20034;-72
2022/01/13 04:22:20;;;;;;;59.90;38.25;;;-2.40;99.90;;;;;;4993963;28;20035;-72
2022/01/13 04:24:50;;;;;;;58.72;38.92;;;-2.40;99.90;;;;;;4994522;28;20053;-71
2022/01/13 04:27:35;;;;;;;56.05;39.42;;;-2.50;99.90;;;;;;4994064;28;20046;-71
2022/01/13 04:30:33;;;;;;;58.53;39.42;;;-2.50;99.90;;;;;;4993367;28;20046;-72
2022/01/13 04:32:58;;;;;;;85.20;42.42;;;-2.50;99.90;;;;;;4993500;28;20038;-71
2022/01/13 04:35:24;;;;;;;72.28;40.80;;;-2.50;99.90;;;;;;4993474;28;20034;-71
2022/01/13 04:37:51;;;;;;;61.97;39.42;;;-2.50;99.90;;;;;;4994269;28;20038;-72
2022/01/13 04:40:17;;;;;;;64.43;41.20;;;-2.50;99.90;;;;;;4993706;28;20030;-72
2022/01/13 04:42:45;;;;;;;60.90;41.95;;;-2.60;99.90;;;;;;4993646;28;20042;-71
2022/01/13 04:45:11;;;;;;;56.67;42.53;;;-2.70;99.90;;;;;;4993463;28;20045;-72
2022/01/13 04:47:37;;;;;;;103.05;46.83;;;-2.70;99.90;;;;;;4994293;28;20041;-72
2022/01/13 04:50:05;;;;;;;78.40;45.88;;;-2.70;99.90;;;;;;4992350;28;20046;-73
2022/01/13 04:52:31;;;;;;;70.35;46.72;;;-2.70;99.90;;;;;;4994330;28;20035;-72
2022/01/13 04:54:57;;;;;;;68.43;46.65;;;-2.70;99.90;;;;;;4994421;28;20034;-71
2022/01/13 04:57:23;;;;;;;67.63;50.78;;;-2.80;99.90;;;;;;4993356;28;20463;-72
2022/01/13 04:59:49;;;;;;;74.25;55.78;;;-2.80;99.90;;;;;;4996089;28;20037;-72
2022/01/13 05:02:16;;;;;;;60.95;48.22;;;-2.80;99.90;;;;;;4995219;28;20042;-72
2022/01/13 05:04:43;;;;;;;57.97;42.17;;;-2.80;99.90;;;;;;4994831;28;20034;-72
2022/01/13 05:07:09;;;;;;;66.15;44.25;;;-2.90;99.90;;;;;;4993724;28;20031;-72
2022/01/13 05:09:35;;;;;;;66.57;47.00;;;-2.90;99.90;;;;;;4993568;28;20050;-72
2022/01/13 05:12:02;;;;;;;70.25;51.17;;;-2.80;99.90;;;;;;4993833;28;20026;-73
2022/01/13 05:14:30;;;;;;;65.90;47.08;;;-2.70;99.90;;;;;;4991993;28;20049;-74
2022/01/13 05:17:05;;;;;;;64.00;46.95;;;-2.80;99.90;;;;;;4994185;28;20038;-74
2022/01/13 05:19:39;;;;;;;70.97;53.45;;;-2.80;99.90;;;;;;4994761;28;20400;-73
2022/01/13 05:22:15;;;;;;;83.95;53.70;;;-2.80;99.90;;;;;;5013287;28;20053;-74
2022/01/13 05:24:45;;;;;;;96.97;66.35;;;-2.80;99.90;;;;;;5013492;28;20057;-75
2022/01/13 05:27:13;;;;;;;68.95;51.72;;;-2.70;99.90;;;;;;4995408;28;20034;-73
2022/01/13 05:29:42;;;;;;;49.08;42.00;;;-2.60;99.90;;;;;;5005666;28;20042;-73
2022/01/13 05:32:09;;;;;;;58.33;40.72;;;-2.60;99.90;;;;;;4995974;28;20030;-74
2022/01/13 05:34:35;;;;;;;49.53;38.45;;;-2.60;99.90;;;;;;4993968;28;20030;-74
2022/01/13 05:37:01;;;;;;;49.38;37.10;;;-2.60;99.90;;;;;;4993958;28;20515;-74
2022/01/13 05:39:27;;;;;;;47.35;38.38;;;-2.50;99.90;;;;;;4993700;28;20038;-74
2022/01/13 05:41:54;;;;;;;51.30;37.30;;;-2.50;99.90;;;;;;4994376;28;20026;-74
2022/01/13 05:44:20;;;;;;;49.25;38.00;;;-2.50;99.90;;;;;;4992928;28;20464;-74
2022/01/13 05:46:46;;;;;;;49.47;34.80;;;-2.60;99.90;;;;;;4992872;28;20042;-75
2022/01/13 05:49:12;;;;;;;47.38;35.10;;;-2.80;99.90;;;;;;4993157;28;20376;-73
2022/01/13 05:51:39;;;;;;;43.90;35.75;;;-2.80;99.90;;;;;;4993806;28;20038;-73
2022/01/13 05:54:05;;;;;;;47.83;34.60;;;-2.80;99.90;;;;;;4993499;28;20030;-74
2022/01/13 05:56:31;;;;;;;44.45;33.10;;;-2.80;99.90;;;;;;4994051;28;20061;-73
2022/01/13 05:58:58;;;;;;;43.40;33.47;;;-2.90;99.90;;;;;;4993710;28;20030;-74
2022/01/13 06:01:24;;;;;;;44.67;34.35;;;-3.00;99.90;;;;;;5007083;28;20037;-74
2022/01/13 06:03:50;;;;;;;41.88;34.47;;;-3.00;99.90;;;;;;5013373;28;20034;-74
2022/01/13 06:06:16;;;;;;;49.47;34.42;;;-3.10;99.90;;;;;;5013605;28;20464;-74
2022/01/13 06:08:42;;;;;;;42.38;31.80;;;-3.10;99.90;;;;;;5013035;28;20043;-74
2022/01/13 06:11:09;;;;;;;42.55;31.70;;;-3.00;99.90;;;;;;5013534;28;20030;-74
2022/01/13 06:13:35;;;;;;;55.40;35.80;;;-2.90;99.90;;;;;;5014090;28;20038;-73
2022/01/13 06:16:01;;;;;;;49.13;36.30;;;-3.00;99.90;;;;;;5011152;28;20054;-73
2022/01/13 06:18:28;;;;;;;44.67;34.50;;;-3.10;99.90;;;;;;5018091;28;20037;-75
2022/01/13 06:20:55;;;;;;;46.45;36.92;;;-3.10;99.90;;;;;;5019682;28;20403;-74
2022/01/13 06:23:21;;;;;;;53.85;39.08;;;-3.10;99.90;;;;;;5015629;28;20387;-74
2022/01/13 06:25:47;;;;;;;43.88;34.75;;;-3.10;99.90;;;;;;5013352;28;20041;-74
2022/01/13 06:28:13;;;;;;;52.45;35.78;;;-3.20;99.90;;;;;;5012971;28;20054;-74
2022/01/13 06:30:40;;;;;;;43.08;36.40;;;-3.20;99.90;;;;;;5003296;28;20353;-74
2022/01/13 06:33:06;;;;;;;45.97;35.00;;;-3.30;99.90;;;;;;4993988;28;20041;-74
2022/01/13 06:35:33;;;;;;;51.90;33.47;;;-3.20;99.90;;;;;;4993970;28;20042;-74
2022/01/13 06:37:59;;;;;;;46.22;32.83;;;-3.20;99.90;;;;;;4993610;28;20039;-74
2022/01/13 06:40:25;;;;;;;61.85;35.88;;;-3.20;99.90;;;;;;4992579;28;20396;-74
2022/01/13 06:42:52;;;;;;;42.38;33.92;;;-3.20;99.90;;;;;;5006859;28;20045;-73
2022/01/13 06:45:18;;;;;;;52.10;43.65;;;-3.20;99.90;;;;;;5011907;28;20041;-74
2022/01/13 06:47:44;;;;;;;58.45;44.65;;;-3.10;99.90;;;;;;5014633;28;20034;-74
2022/01/13 06:50:11;;;;;;;50.08;42.63;;;-3.00;99.90;;;;;;5012178;28;20034;-78
2022/01/13 06:52:38;;;;;;;64.00;40.42;;;-2.90;99.90;;;;;;5013102;28;20484;-74
2022/01/13 06:55:05;;;;;;;53.50;40.60;;;-2.80;99.90;;;;;;5012644;28;20033;-74
2022/01/13 06:57:31;;;;;;;46.42;36.13;;;-2.90;99.90;;;;;;5016317;28;20034;-74
2022/01/13 06:59:58;;;;;;;49.20;35.25;;;-2.90;99.90;;;;;;5016326;28;20033;-74
2022/01/13 07:02:26;;;;;;;39.15;32.53;;;-3.00;99.90;;;;;;5016125;28;20030;-74
2022/01/13 07:04:52;;;;;;;49.20;35.25;;;-3.00;99.90;;;;;;5016127;28;20471;-74
2022/01/13 07:07:18;;;;;;;46.60;35.50;;;-2.90;99.90;;;;;;5015442;28;20061;-74
2022/01/13 07:09:45;;;;;;;56.60;40.97;;;-2.90;99.90;;;;;;5016548;28;20048;-74
2022/01/13 07:12:11;;;;;;;68.32;46.70;;;-2.90;99.90;;;;;;5013369;28;20026;-74
2022/01/13 07:14:37;;;;;;;69.20;49.35;;;-2.90;99.90;;;;;;5013051;28;20045;-73
2022/01/13 07:17:04;;;;;;;151.45;75.18;;;-2.80;99.90;;;;;;5008786;28;20034;-73
2022/01/13 07:19:30;;;;;;;138.20;65.80;;;-2.80;99.90;;;;;;5000389;28;20388;-73
2022/01/13 07:21:57;;;;;;;108.30;54.33;;;-2.80;99.90;;;;;;4996704;28;20034;-75
2022/01/13 07:24:23;;;;;;;102.45;53.05;;;-2.80;99.90;;;;;;4996957;28;20054;-74
2022/01/13 07:26:49;;;;;;;51.08;36.90;;;-2.90;99.90;;;;;;4995426;28;20034;-73
2022/01/13 07:29:15;;;;;;;46.53;36.20;;;-2.80;99.90;;;;;;4996315;28;20042;-73
2022/01/13 07:31:42;;;;;;;44.17;33.47;;;-2.80;99.90;;;;;;4996299;28;20034;-74
2022/01/13 07:34:08;;;;;;;47.65;33.60;;;-2.80;99.90;;;;;;5000371;28;20057;-74
2022/01/13 07:36:36;;;;;;;47.92;32.03;;;-2.80;99.90;;;;;;5001020;28;20038;-74
2022/01/13 07:39:03;;;;;;;45.00;32.97;;;-2.70;99.90;;;;;;4997066;28;20026;-73
2022/01/13 07:41:29;;;;;;;45.67;33.17;;;-2.80;99.90;;;;;;4995584;28;20391;-74
2022/01/13 07:43:56;;;;;;;47.97;33.03;;;-2.70;99.90;;;;;;4996267;28;20037;-74
2022/01/13 07:46:23;;;;;;;40.97;31.27;;;-2.60;99.90;;;;;;4994261;28;20038;-74
2022/01/13 07:48:51;;;;;;;41.33;32.25;;;-2.60;99.90;;;;;;4995938;28;20038;-74
2022/01/13 07:51:17;;;;;;;33.78;28.52;;;-2.60;99.90;;;;;;5003709;28;20030;-74
2022/01/13 07:53:44;;;;;;;44.97;30.80;;;-2.50;99.90;;;;;;5008309;28;20030;-74
2022/01/13 07:56:10;;;;;;;40.97;31.27;;;-2.40;99.90;;;;;;4996093;28;20042;-73
2022/01/13 07:58:37;;;;;;;39.05;32.00;;;-2.40;99.90;;;;;;4994971;28;20049;-74
2022/01/13 08:01:04;;;;;;;40.90;30.85;;;-2.30;99.90;;;;;;5001799;28;20029;-73
2022/01/13 08:03:30;;;;;;;42.20;31.77;;;-2.20;99.90;;;;;;4998566;28;20082;-73
2022/01/13 08:05:58;;;;;;;43.28;31.38;;;-2.10;99.90;;;;;;4995203;28;20042;-72
2022/01/13 08:08:25;;;;;;;39.42;31.08;;;-2.00;99.90;;;;;;4993696;28;20049;-73
2022/01/13 08:10:51;;;;;;;39.90;30.80;;;-1.90;99.90;;;;;;4995525;28;20486;-72
2022/01/13 08:13:17;;;;;;;39.88;33.30;;;-1.80;99.90;;;;;;4993809;28;20038;-72
2022/01/13 08:15:44;;;;;;;38.83;31.35;;;-1.70;99.90;;;;;;4994872;28;20046;-73
2022/01/13 08:20:55;;;;;;;44.30;33.08;;;-1.50;99.90;;;;;;4994972;28;20042;-72
2022/01/13 08:23:21;;;;;;;37.80;31.08;;;-1.40;99.90;;;;;;4994123;28;20051;-73
2022/01/13 08:25:47;;;;;;;33.35;29.63;;;-1.30;99.90;;;;;;4994668;28;20037;-73
2022/01/13 08:28:13;;;;;;;31.52;28.23;;;-1.20;99.90;;;;;;4995063;28;20468;-73
2022/01/13 08:30:40;;;;;;;34.28;27.55;;;-1.10;99.90;;;;;;4994062;28;20039;-73
2022/01/13 08:33:07;;;;;;;38.92;31.42;;;-1.00;99.90;;;;;;4994506;28;20037;-74
2022/01/13 08:35:33;;;;;;;51.22;45.60;;;-1.00;99.90;;;;;;4994011;28;20365;-73
2022/01/13 08:38:05;;;;;;;42.65;38.05;;;-0.80;99.90;;;;;;4997061;28;20392;-73
2022/01/13 08:40:34;;;;;;;48.50;42.40;;;-0.60;99.90;;;;;;4995204;28;20034;-74
2022/01/13 08:43:02;;;;;;;44.92;32.30;;;-0.50;99.90;;;;;;4993462;28;20472;-73
2022/01/13 08:45:29;;;;;;;34.97;31.55;;;-0.40;99.90;;;;;;4993245;28;20042;-73
2022/01/13 08:47:55;;;;;;;31.23;26.75;;;-0.30;99.90;;;;;;4994617;28;20471;-73
2022/01/13 08:50:21;;;;;;;60.90;30.73;;;-0.20;99.90;;;;;;4993881;28;20039;-73
2022/01/13 08:52:47;;;;;;;31.42;24.80;;;-0.10;99.90;;;;;;4994131;28;20042;-73
2022/01/13 08:55:14;;;;;;;32.30;25.02;;;-0.20;99.90;;;;;;4994426;28;20031;-73
2022/01/13 08:57:40;;;;;;;39.05;26.63;;;-0.20;99.90;;;;;;4993608;28;20049;-73
2022/01/13 09:00:08;;;;;;;33.45;28.88;;;-0.20;99.90;;;;;;4994251;28;20038;-73
2022/01/13 09:02:34;;;;;;;37.05;31.55;;;-0.10;99.90;;;;;;4993447;28;20039;-73
2022/01/13 09:05:02;;;;;;;48.97;43.65;;;0.10;99.90;;;;;;4994350;28;20026;-74
2022/01/13 09:07:28;;;;;;;46.67;41.63;;;0.10;99.90;;;;;;4993032;28;20042;-73
2022/01/13 09:09:56;;;;;;;50.80;41.30;;;0.20;99.90;;;;;;4994070;28;20415;-73
2022/01/13 09:12:22;;;;;;;41.80;36.70;;;0.30;99.90;;;;;;5003775;28;20033;-74
2022/01/13 09:14:51;;;;;;;57.50;45.33;;;0.40;99.90;;;;;;5013386;28;20037;-73
2022/01/13 09:17:23;;;;;;;54.17;44.45;;;0.50;99.90;;;;;;5013362;28;20487;-73
2022/01/13 09:19:51;;;;;;;48.17;39.95;;;0.60;99.90;;;;;;5013206;28;20034;-79
2022/01/13 09:22:18;;;;;;;42.10;37.30;;;0.70;99.90;;;;;;5011772;28;20048;-81
2022/01/13 09:24:45;;;;;;;46.58;41.60;;;0.80;99.90;;;;;;5013576;28;20068;-79
2022/01/13 09:27:11;;;;;;;43.03;38.50;;;0.90;99.90;;;;;;5013028;28;20037;-80
2022/01/13 09:29:38;;;;;;;44.05;37.97;;;0.90;99.90;;;;;;5012535;28;20530;-80
2022/01/13 09:32:05;;;;;;;48.00;38.03;;;0.90;99.90;;;;;;5013138;28;20041;-79
2022/01/13 09:34:32;;;;;;;42.20;37.63;;;0.90;99.90;;;;;;5012572;28;20034;-80
2022/01/13 09:36:58;;;;;;;43.03;37.47;;;1.00;99.90;;;;;;5013170;28;20038;-80
2022/01/13 09:39:24;;;;;;;43.75;39.47;;;1.00;99.90;;;;;;5011078;28;20038;-80
2022/01/13 09:41:51;;;;;;;43.25;38.78;;;1.10;99.90;;;;;;5013179;28;20030;-79
2022/01/13 09:44:18;;;;;;;53.53;38.30;;;1.20;99.90;;;;;;5013309;28;20030;-80
2022/01/13 09:46:45;;;;;;;54.88;37.50;;;1.20;99.90;;;;;;5012924;28;20403;-79
2022/01/13 09:49:11;;;;;;;43.58;34.90;;;1.30;99.90;;;;;;5013261;28;20046;-79
2022/01/13 09:51:44;;;;;;;44.45;37.00;;;1.30;99.90;;;;;;5012649;28;20026;-78
2022/01/13 09:54:12;;;;;;;53.45;44.65;;;1.30;99.90;;;;;;5012113;28;20415;-80
2022/01/13 09:56:39;;;;;;;47.40;39.05;;;1.30;99.90;;;;;;5012699;28;20030;-80
2022/01/13 09:59:06;;;;;;;42.65;36.58;;;1.40;99.90;;;;;;5013159;28;20463;-81
2022/01/13 10:01:33;;;;;;;43.33;36.05;;;1.40;99.90;;;;;;5013288;28;20030;-81
2022/01/13 10:03:59;;;;;;;39.30;35.42;;;1.50;99.90;;;;;;5013639;28;20375;-80
2022/01/13 10:06:25;;;;;;;45.75;37.80;;;1.50;99.90;;;;;;5013704;28;20045;-81
2022/01/13 10:08:55;;;;;;;47.17;41.88;;;1.60;99.90;;;;;;5016570;28;20471;-80
2022/01/13 10:11:38;;;;;;;43.97;39.15;;;1.60;99.90;;;;;;5017450;28;20030;-85
2022/01/13 10:14:10;;;;;;;48.28;43.03;;;1.60;99.90;;;;;;5013168;28;20053;-81
2022/01/13 10:16:58;;;;;;;43.25;38.47;;;1.60;99.90;;;;;;5012791;28;20475;-81
2022/01/13 10:19:39;;;;;;;60.75;42.03;;;1.60;99.90;;;;;;5011068;28;20042;-81
2022/01/13 10:22:19;;;;;;;59.30;45.70;;;1.60;99.90;;;;;;5013419;28;20038;-80
2022/01/13 10:24:48;;;;;;;62.35;50.22;;;1.50;99.90;;;;;;5012286;28;20053;-81
2022/01/13 10:27:36;;;;;;;52.50;42.60;;;1.60;99.90;;;;;;5010872;28;20042;-81
2022/01/13 10:30:15;;;;;;;42.88;34.72;;;1.60;99.90;;;;;;5012142;28;20046;-80
2022/01/13 10:32:44;;;;;;;41.85;37.42;;;1.70;99.90;;;;;;5016335;28;20041;-80
2022/01/13 10:35:16;;;;;;;56.60;41.10;;;1.70;99.90;;;;;;5017344;28;20037;-80
2022/01/13 10:37:47;;;;;;;51.78;39.78;;;1.80;99.90;;;;;;5016790;28;20483;-80
2022/01/13 10:40:23;;;;;;;47.40;35.63;;;1.80;99.90;;;;;;5016828;28;20037;-81
2022/01/13 10:45:22;;;;;;;61.88;47.47;;;1.80;99.90;;;;;;5016611;28;20034;-81
2022/01/13 10:47:54;;;;;;;81.07;50.63;;;1.70;99.90;;;;;;5016012;28;20037;-81
2022/01/13 10:50:22;;;;;;;71.30;52.25;;;1.60;99.90;;;;;;5016115;28;20061;-75
2022/01/13 10:52:51;;;;;;;75.68;53.35;;;1.70;99.90;;;;;;5013603;28;20773;-75
2022/01/13 10:55:20;;;;;;;62.45;51.00;;;1.70;99.90;;;;;;5015951;28;20034;-75
2022/01/13 10:57:51;;;;;;;61.30;47.65;;;1.80;99.90;;;;;;5015609;28;20410;-76
2022/01/13 11:00:17;;;;;;;40.63;33.75;;;1.80;99.90;;;;;;5016613;28;20037;-74
2022/01/13 11:02:57;;;;;;;52.22;45.25;;;1.90;99.90;;;;;;5015192;28;20033;-74
2022/01/13 11:05:25;;;;;;;76.22;49.30;;;1.90;99.90;;;;;;5016351;28;20042;-74
2022/01/13 11:07:51;;;;;;;103.15;54.42;;;1.80;99.90;;;;;;4998360;28;20476;-74
2022/01/13 11:10:18;;;;;;;65.85;48.38;;;1.90;99.90;;;;;;5015874;28;20044;-74
2022/01/13 11:12:45;;;;;;;237.48;90.75;;;1.90;99.90;;;;;;5013197;28;20053;-74
2022/01/13 11:15:15;;;;;;;57.25;44.50;;;1.90;99.90;;;;;;5015712;28;20463;-74
2022/01/13 11:17:44;;;;;;;36.88;32.92;;;2.00;99.90;;;;;;5015328;28;20042;-75
2022/01/13 11:20:13;;;;;;;51.13;42.33;;;2.00;99.90;;;;;;4997803;28;20038;-75
2022/01/13 11:22:42;;;;;;;66.38;45.70;;;2.10;99.90;;;;;;5015128;28;20034;-75
2022/01/13 11:25:10;;;;;;;50.28;39.08;;;2.20;99.90;;;;;;5015352;28;20424;-74
2022/01/13 11:27:37;;;;;;;46.90;38.55;;;2.20;99.90;;;;;;5013758;28;20029;-74
2022/01/13 11:30:08;;;;;;;29.88;26.77;;;2.30;99.90;;;;;;5014113;28;20049;-75
2022/01/13 11:32:35;;;;;;;33.13;26.40;;;2.30;99.90;;;;;;5014700;28;20029;-75
2022/01/13 11:35:03;;;;;;;33.00;29.60;;;2.20;99.90;;;;;;5006300;28;20464;-75
2022/01/13 11:37:30;;;;;;;28.75;25.67;;;2.20;99.90;;;;;;5007773;28;20045;-77
2022/01/13 11:39:58;;;;;;;32.17;23.38;;;2.20;99.90;;;;;;4998039;28;20030;-75
2022/01/13 11:42:24;;;;;;;27.67;23.20;;;2.00;99.90;;;;;;4994456;28;20041;-74
2022/01/13 11:45:12;;;;;;;27.95;24.98;;;2.00;99.90;;;;;;4994851;28;20037;-74
2022/01/13 11:47:39;;;;;;;27.83;24.92;;;2.10;99.90;;;;;;4994632;28;20038;-75
2022/01/13 11:50:24;;;;;;;29.67;23.23;;;2.50;99.90;;;;;;4995658;28;20038;-71
2022/01/13 11:52:53;;;;;;;25.63;22.88;;;2.60;99.90;;;;;;4994741;28;20038;-71
2022/01/13 11:55:32;;;;;;;32.55;25.80;;;2.90;99.90;;;;;;4995452;28;20033;-71
2022/01/13 11:58:13;;;;;;;22.63;20.30;;;3.10;99.90;;;;;;4995199;28;20038;-72
2022/01/13 12:00:41;;;;;;;25.73;16.53;;;3.20;99.90;;;;;;4994850;28;20038;-72
2022/01/13 12:03:28;;;;;;;28.98;21.08;;;3.00;99.90;;;;;;4995320;28;20643;-72
2022/01/13 12:05:56;;;;;;;21.20;18.30;;;2.60;99.90;;;;;;4995368;28;20042;-72
2022/01/13 12:08:37;;;;;;;25.33;20.08;;;2.60;99.90;;;;;;4994885;28;20041;-72
2022/01/13 12:11:04;;;;;;;31.45;24.08;;;2.80;99.90;;;;;;4976637;28;20053;-72
2022/01/13 12:13:36;;;;;;;28.08;25.10;;;2.80;99.90;;;;;;4993969;28;20046;-72
2022/01/13 12:16:05;;;;;;;36.70;29.80;;;2.90;99.90;;;;;;4994894;28;20041;-71
2022/01/13 12:18:46;;;;;;;46.60;34.97;;;2.80;99.90;;;;;;4994077;28;20034;-72
2022/01/13 12:21:36;;;;;;;50.92;38.55;;;2.80;99.90;;;;;;4994737;28;20035;-73
2022/01/13 12:24:06;;;;;;;45.00;37.47;;;2.60;99.90;;;;;;4993976;28;20396;-72
2022/01/13 12:26:32;;;;;;;43.75;34.80;;;2.70;99.90;;;;;;4993942;28;20045;-72
2022/01/13 12:29:14;;;;;;;47.72;36.13;;;2.80;99.90;;;;;;4993806;28;20058;-72
2022/01/13 12:31:57;;;;;;;39.70;34.95;;;2.90;99.90;;;;;;4993679;28;20041;-72
2022/01/13 12:34:32;;;;;;;53.17;38.83;;;2.80;99.90;;;;;;4994808;28;20038;-72
2022/01/13 12:37:21;;;;;;;48.80;34.95;;;2.80;99.90;;;;;;4994171;28;20038;-72
2022/01/13 12:39:58;;;;;;;49.20;40.28;;;2.80;99.90;;;;;;4999927;28;20038;-75
2022/01/13 12:42:38;;;;;;;48.58;41.50;;;3.00;99.90;;;;;;5000814;28;20061;-76
2022/01/13 12:47:53;;;;;;;60.60;40.92;;;3.50;99.90;;;;;;4993907;28;20045;-81
2022/01/13 12:50:41;;;;;;;48.55;41.22;;;3.60;99.90;;;;;;4993994;28;20045;-81
2022/01/13 12:53:19;;;;;;;63.13;45.70;;;3.50;99.90;;;;;;4993937;28;20050;-82
2022/01/13 12:56:07;;;;;;;61.42;45.25;;;3.60;99.90;;;;;;4993499;28;20403;-82
2022/01/13 12:58:43;;;;;;;57.03;48.53;;;3.50;99.90;;;;;;4993860;28;20037;-83
2022/01/13 13:01:30;;;;;;;106.68;60.53;;;3.50;99.90;;;;;;4993103;28;20385;-82